sensor_id;sensor_type;location;lat;lon;timestamp;P1;durP1;ratioP1;P2;durP2;ratioP2
48574;SDS011;34352;51.084;3.712;2023-05-29T09:09:45;13.38;;;4.25;;
48574;SDS011;34352;51.084;3.712;2023-05-29T09:12:11;15.48;;;4.50;;
48574;SDS011;34352;51.084;3.712;2023-05-29T09:14:41;13.07;;;4.10;;
48574;SDS011;34352;51.084;3.712;2023-05-29T09:19:54;16.30;;;4.05;;
48574;SDS011;34352;51.084;3.712;2023-05-29T09:22:24;15.93;;;4.55;;
48574;SDS011;34352;51.084;3.712;2023-05-29T09:27:19;13.60;;;3.65;;
48574;SDS011;34352;51.084;3.712;2023-05-29T09:32:16;15.18;;;4.45;;
48574;SDS011;34352;51.084;3.712;2023-05-29T09:34:53;18.38;;;3.78;;
48574;SDS011;34352;51.084;3.712;2023-05-29T09:42:51;16.25;;;5.03;;
48574;SDS011;34352;51.084;3.712;2023-05-29T09:45:24;12.75;;;4.30;;
48574;SDS011;34352;51.084;3.712;2023-05-29T09:48:02;14.98;;;4.53;;
48574;SDS011;34352;51.084;3.712;2023-05-29T09:50:36;16.35;;;4.38;;
48574;SDS011;34352;51.084;3.712;2023-05-29T09:59:06;13.25;;;3.63;;
48574;SDS011;34352;51.084;3.712;2023-05-29T10:01:45;12.00;;;3.70;;
48574;SDS011;34352;51.084;3.712;2023-05-29T10:07:46;16.80;;;4.22;;
48574;SDS011;34352;51.084;3.712;2023-05-29T10:10:16;14.10;;;3.80;;
48574;SDS011;34352;51.084;3.712;2023-05-29T10:12:50;19.83;;;6.13;;
48574;SDS011;34352;51.084;3.712;2023-05-29T10:15:23;18.20;;;4.63;;
48574;SDS011;34352;51.084;3.712;2023-05-29T10:18:04;13.00;;;3.85;;
48574;SDS011;34352;51.084;3.712;2023-05-29T10:20:37;14.07;;;3.53;;
48574;SDS011;34352;51.084;3.712;2023-05-29T10:23:05;16.17;;;5.70;;
48574;SDS011;34352;51.084;3.712;2023-05-29T10:25:33;12.38;;;3.78;;
48574;SDS011;34352;51.084;3.712;2023-05-29T10:40:38;9.07;;;3.47;;
48574;SDS011;34352;51.084;3.712;2023-05-29T10:46:18;14.05;;;4.20;;
48574;SDS011;34352;51.084;3.712;2023-05-29T10:48:50;12.57;;;4.57;;
48574;SDS011;34352;51.084;3.712;2023-05-29T10:51:24;12.70;;;4.07;;
48574;SDS011;34352;51.084;3.712;2023-05-29T10:53:51;10.65;;;3.50;;
48574;SDS011;34352;51.084;3.712;2023-05-29T10:59:05;9.93;;;4.13;;
48574;SDS011;34352;51.084;3.712;2023-05-29T11:01:37;12.77;;;4.20;;
48574;SDS011;34352;51.084;3.712;2023-05-29T11:06:53;10.80;;;3.28;;
48574;SDS011;34352;51.084;3.712;2023-05-29T11:09:28;10.15;;;3.38;;
48574;SDS011;34352;51.084;3.712;2023-05-29T11:15:04;9.73;;;4.60;;
48574;SDS011;34352;51.084;3.712;2023-05-29T11:23:05;11.85;;;4.18;;
48574;SDS011;34352;51.084;3.712;2023-05-29T11:25:36;11.50;;;4.07;;
48574;SDS011;34352;51.084;3.712;2023-05-29T11:28:12;12.52;;;4.05;;
48574;SDS011;34352;51.084;3.712;2023-05-29T11:30:49;11.52;;;3.55;;
48574;SDS011;34352;51.084;3.712;2023-05-29T11:33:30;13.52;;;3.90;;
48574;SDS011;34352;51.084;3.712;2023-05-29T11:36:12;12.23;;;4.55;;
48574;SDS011;34352;51.084;3.712;2023-05-29T11:38:42;10.37;;;3.37;;
48574;SDS011;34352;51.084;3.712;2023-05-29T11:41:12;9.80;;;3.70;;
48574;SDS011;34352;51.084;3.712;2023-05-29T11:43:41;10.85;;;3.42;;
48574;SDS011;34352;51.084;3.712;2023-05-29T11:46:19;9.85;;;3.50;;
48574;SDS011;34352;51.084;3.712;2023-05-29T11:48:46;15.68;;;5.03;;
48574;SDS011;34352;51.084;3.712;2023-05-29T11:51:14;10.07;;;3.60;;
48574;SDS011;34352;51.084;3.712;2023-05-29T11:58:58;8.27;;;2.85;;
48574;SDS011;34352;51.084;3.712;2023-05-29T12:01:26;11.25;;;4.18;;
48574;SDS011;34352;51.084;3.712;2023-05-29T12:03:54;10.70;;;3.67;;
48574;SDS011;34352;51.084;3.712;2023-05-29T12:06:32;8.73;;;3.05;;
48574;SDS011;34352;51.084;3.712;2023-05-29T12:09:03;13.77;;;3.58;;
48574;SDS011;34352;51.084;3.712;2023-05-29T12:11:35;10.65;;;3.78;;
48574;SDS011;34352;51.084;3.712;2023-05-29T12:16:37;10.13;;;4.15;;
48574;SDS011;34352;51.084;3.712;2023-05-29T12:19:03;12.80;;;4.22;;
48574;SDS011;34352;51.084;3.712;2023-05-29T12:21:40;10.13;;;3.70;;
48574;SDS011;34352;51.084;3.712;2023-05-29T12:24:13;9.75;;;3.47;;
48574;SDS011;34352;51.084;3.712;2023-05-29T12:29:16;11.70;;;3.65;;
48574;SDS011;34352;51.084;3.712;2023-05-29T12:34:39;7.30;;;3.10;;
48574;SDS011;34352;51.084;3.712;2023-05-29T12:37:07;8.27;;;2.72;;
48574;SDS011;34352;51.084;3.712;2023-05-29T12:39:36;10.50;;;3.28;;
48574;SDS011;34352;51.084;3.712;2023-05-29T12:42:11;10.93;;;3.92;;
48574;SDS011;34352;51.084;3.712;2023-05-29T12:44:39;11.65;;;4.40;;
48574;SDS011;34352;51.084;3.712;2023-05-29T12:49:38;8.57;;;2.65;;
48574;SDS011;34352;51.084;3.712;2023-05-29T12:52:07;9.88;;;3.60;;
48574;SDS011;34352;51.084;3.712;2023-05-29T12:54:38;7.70;;;2.60;;
48574;SDS011;34352;51.084;3.712;2023-05-29T12:57:04;8.18;;;3.20;;
48574;SDS011;34352;51.084;3.712;2023-05-29T12:59:33;9.88;;;3.22;;
48574;SDS011;34352;51.084;3.712;2023-05-29T13:02:01;15.27;;;4.07;;
48574;SDS011;34352;51.084;3.712;2023-05-29T13:04:31;8.15;;;3.22;;
48574;SDS011;34352;51.084;3.712;2023-05-29T13:06:57;10.15;;;2.90;;
48574;SDS011;34352;51.084;3.712;2023-05-29T13:09:23;10.27;;;2.80;;
48574;SDS011;34352;51.084;3.712;2023-05-29T13:11:49;7.70;;;2.67;;
48574;SDS011;34352;51.084;3.712;2023-05-29T13:14:15;12.82;;;2.90;;
48574;SDS011;34352;51.084;3.712;2023-05-29T13:16:45;6.95;;;2.70;;
48574;SDS011;34352;51.084;3.712;2023-05-29T13:19:14;10.38;;;3.00;;
48574;SDS011;34352;51.084;3.712;2023-05-29T13:21:40;9.60;;;3.15;;
48574;SDS011;34352;51.084;3.712;2023-05-29T13:24:13;7.72;;;3.40;;
48574;SDS011;34352;51.084;3.712;2023-05-29T13:26:41;8.25;;;3.15;;
48574;SDS011;34352;51.084;3.712;2023-05-29T13:29:08;9.70;;;3.10;;
48574;SDS011;34352;51.084;3.712;2023-05-29T13:31:38;7.90;;;3.10;;
48574;SDS011;34352;51.084;3.712;2023-05-29T13:36:54;8.65;;;4.35;;
48574;SDS011;34352;51.084;3.712;2023-05-29T13:39:20;12.55;;;4.43;;
48574;SDS011;34352;51.084;3.712;2023-05-29T13:44:47;20.98;;;10.48;;
48574;SDS011;34352;51.084;3.712;2023-05-29T13:47:14;6.78;;;3.85;;
48574;SDS011;34352;51.084;3.712;2023-05-29T13:49:40;8.82;;;3.92;;
48574;SDS011;34352;51.084;3.712;2023-05-29T13:52:06;8.07;;;2.88;;
48574;SDS011;34352;51.084;3.712;2023-05-29T13:54:34;8.07;;;2.58;;
48574;SDS011;34352;51.084;3.712;2023-05-29T13:57:05;9.40;;;2.55;;
48574;SDS011;34352;51.084;3.712;2023-05-29T13:59:43;6.93;;;2.83;;
48574;SDS011;34352;51.084;3.712;2023-05-29T14:04:39;8.98;;;2.95;;
48574;SDS011;34352;51.084;3.712;2023-05-29T14:12:59;14.43;;;4.22;;
48574;SDS011;34352;51.084;3.712;2023-05-29T14:20:57;10.95;;;3.05;;
48574;SDS011;34352;51.084;3.712;2023-05-29T14:29:56;11.20;;;3.50;;
48574;SDS011;34352;51.084;3.712;2023-05-29T14:35:42;7.72;;;3.40;;
48574;SDS011;34352;51.084;3.712;2023-05-29T14:38:16;12.32;;;3.80;;
48574;SDS011;34352;51.084;3.712;2023-05-29T14:40:59;9.07;;;3.50;;
48574;SDS011;34352;51.084;3.712;2023-05-29T14:43:25;11.15;;;5.40;;
48574;SDS011;34352;51.084;3.712;2023-05-29T14:45:50;11.27;;;3.70;;
48574;SDS011;34352;51.084;3.712;2023-05-29T14:53:40;11.23;;;3.85;;
48574;SDS011;34352;51.084;3.712;2023-05-29T14:56:05;8.63;;;4.07;;
48574;SDS011;34352;51.084;3.712;2023-05-29T14:58:31;11.77;;;4.07;;
48574;SDS011;34352;51.084;3.712;2023-05-29T15:00:57;12.60;;;4.00;;
48574;SDS011;34352;51.084;3.712;2023-05-29T15:05:54;14.57;;;4.78;;
48574;SDS011;34352;51.084;3.712;2023-05-29T15:11:16;11.05;;;6.18;;
48574;SDS011;34352;51.084;3.712;2023-05-29T15:19:39;15.50;;;3.78;;
48574;SDS011;34352;51.084;3.712;2023-05-29T15:27:42;9.68;;;3.55;;
48574;SDS011;34352;51.084;3.712;2023-05-29T15:41:56;11.20;;;4.00;;
48574;SDS011;34352;51.084;3.712;2023-05-29T15:44:40;18.67;;;4.05;;
48574;SDS011;34352;51.084;3.712;2023-05-29T15:47:06;10.15;;;3.90;;
48574;SDS011;34352;51.084;3.712;2023-05-29T15:54:49;14.45;;;3.95;;
48574;SDS011;34352;51.084;3.712;2023-05-29T15:57:26;14.73;;;4.07;;
48574;SDS011;34352;51.084;3.712;2023-05-29T16:00:06;17.70;;;4.85;;
48574;SDS011;34352;51.084;3.712;2023-05-29T16:05:47;12.90;;;3.92;;
48574;SDS011;34352;51.084;3.712;2023-05-29T16:14:19;15.02;;;5.28;;
48574;SDS011;34352;51.084;3.712;2023-05-29T16:19:56;14.77;;;4.90;;
48574;SDS011;34352;51.084;3.712;2023-05-29T16:22:22;13.98;;;4.75;;
48574;SDS011;34352;51.084;3.712;2023-05-29T16:24:50;16.38;;;4.18;;
48574;SDS011;34352;51.084;3.712;2023-05-29T16:27:25;14.25;;;4.53;;
48574;SDS011;34352;51.084;3.712;2023-05-29T16:33:14;12.60;;;4.03;;
48574;SDS011;34352;51.084;3.712;2023-05-29T16:35:41;10.48;;;3.63;;
48574;SDS011;34352;51.084;3.712;2023-05-29T16:38:10;10.88;;;3.47;;
48574;SDS011;34352;51.084;3.712;2023-05-29T16:40:39;9.43;;;3.75;;
48574;SDS011;34352;51.084;3.712;2023-05-29T16:43:09;15.30;;;4.00;;
48574;SDS011;34352;51.084;3.712;2023-05-29T16:45:53;14.80;;;4.50;;
48574;SDS011;34352;51.084;3.712;2023-05-29T16:50:52;15.25;;;4.70;;
48574;SDS011;34352;51.084;3.712;2023-05-29T16:53:30;15.35;;;4.50;;
48574;SDS011;34352;51.084;3.712;2023-05-29T16:56:09;16.13;;;4.22;;
48574;SDS011;34352;51.084;3.712;2023-05-29T17:01:18;15.40;;;4.10;;
48574;SDS011;34352;51.084;3.712;2023-05-29T17:06:51;17.10;;;4.53;;
48574;SDS011;34352;51.084;3.712;2023-05-29T17:09:17;16.35;;;5.07;;
48574;SDS011;34352;51.084;3.712;2023-05-29T17:11:47;11.27;;;3.97;;
48574;SDS011;34352;51.084;3.712;2023-05-29T17:14:15;15.50;;;4.38;;
48574;SDS011;34352;51.084;3.712;2023-05-29T17:16:41;19.98;;;6.68;;
48574;SDS011;34352;51.084;3.712;2023-05-29T17:19:06;16.67;;;3.90;;
48574;SDS011;34352;51.084;3.712;2023-05-29T17:21:32;15.05;;;4.80;;
48574;SDS011;34352;51.084;3.712;2023-05-29T17:26:48;14.98;;;4.55;;
48574;SDS011;34352;51.084;3.712;2023-05-29T17:34:37;14.50;;;4.30;;
48574;SDS011;34352;51.084;3.712;2023-05-29T17:37:09;16.75;;;5.03;;
48574;SDS011;34352;51.084;3.712;2023-05-29T17:39:46;20.02;;;4.80;;
48574;SDS011;34352;51.084;3.712;2023-05-29T17:44:47;12.20;;;3.83;;
48574;SDS011;34352;51.084;3.712;2023-05-29T17:47:21;16.77;;;4.90;;
48574;SDS011;34352;51.084;3.712;2023-05-29T17:49:52;20.10;;;4.72;;
48574;SDS011;34352;51.084;3.712;2023-05-29T17:52:21;18.90;;;5.93;;
48574;SDS011;34352;51.084;3.712;2023-05-29T17:54:48;17.70;;;6.13;;
48574;SDS011;34352;51.084;3.712;2023-05-29T17:57:29;15.77;;;4.13;;
48574;SDS011;34352;51.084;3.712;2023-05-29T17:59:54;14.88;;;4.40;;
48574;SDS011;34352;51.084;3.712;2023-05-29T18:02:24;16.42;;;4.25;;
48574;SDS011;34352;51.084;3.712;2023-05-29T18:04:51;15.38;;;4.18;;
48574;SDS011;34352;51.084;3.712;2023-05-29T18:09:47;17.25;;;3.80;;
48574;SDS011;34352;51.084;3.712;2023-05-29T18:12:13;15.38;;;3.83;;
48574;SDS011;34352;51.084;3.712;2023-05-29T18:14:44;13.50;;;3.95;;
48574;SDS011;34352;51.084;3.712;2023-05-29T18:17:11;17.33;;;3.90;;
48574;SDS011;34352;51.084;3.712;2023-05-29T18:19:36;14.25;;;3.90;;
48574;SDS011;34352;51.084;3.712;2023-05-29T18:22:16;15.13;;;3.70;;
48574;SDS011;34352;51.084;3.712;2023-05-29T18:24:42;15.70;;;5.80;;
48574;SDS011;34352;51.084;3.712;2023-05-29T18:27:09;12.32;;;3.70;;
48574;SDS011;34352;51.084;3.712;2023-05-29T18:29:35;16.10;;;3.40;;
48574;SDS011;34352;51.084;3.712;2023-05-29T18:32:01;15.02;;;4.18;;
48574;SDS011;34352;51.084;3.712;2023-05-29T18:37:03;14.35;;;3.42;;
48574;SDS011;34352;51.084;3.712;2023-05-29T18:39:29;14.90;;;3.53;;
48574;SDS011;34352;51.084;3.712;2023-05-29T18:41:57;15.27;;;3.53;;
48574;SDS011;34352;51.084;3.712;2023-05-29T18:44:24;21.20;;;4.22;;
48574;SDS011;34352;51.084;3.712;2023-05-29T18:46:50;15.77;;;3.67;;
48574;SDS011;34352;51.084;3.712;2023-05-29T18:49:17;16.30;;;4.18;;
48574;SDS011;34352;51.084;3.712;2023-05-29T18:51:43;13.55;;;4.35;;
48574;SDS011;34352;51.084;3.712;2023-05-29T18:54:10;20.58;;;5.82;;
48574;SDS011;34352;51.084;3.712;2023-05-29T18:56:40;14.35;;;4.32;;
48574;SDS011;34352;51.084;3.712;2023-05-29T18:59:06;15.80;;;4.07;;
48574;SDS011;34352;51.084;3.712;2023-05-29T19:01:32;17.33;;;4.25;;
48574;SDS011;34352;51.084;3.712;2023-05-29T19:03:58;16.35;;;4.55;;
48574;SDS011;34352;51.084;3.712;2023-05-29T19:06:27;16.17;;;3.78;;
48574;SDS011;34352;51.084;3.712;2023-05-29T19:08:53;17.02;;;4.75;;
48574;SDS011;34352;51.084;3.712;2023-05-29T19:11:20;10.63;;;3.80;;
48574;SDS011;34352;51.084;3.712;2023-05-29T19:13:49;16.20;;;4.22;;
48574;SDS011;34352;51.084;3.712;2023-05-29T19:16:18;17.27;;;3.40;;
48574;SDS011;34352;51.084;3.712;2023-05-29T19:18:47;16.20;;;4.38;;
48574;SDS011;34352;51.084;3.712;2023-05-29T19:21:17;17.90;;;4.35;;
48574;SDS011;34352;51.084;3.712;2023-05-29T19:23:46;13.75;;;4.00;;
48574;SDS011;34352;51.084;3.712;2023-05-29T19:26:13;15.50;;;4.10;;
48574;SDS011;34352;51.084;3.712;2023-05-29T19:28:39;18.83;;;4.15;;
48574;SDS011;34352;51.084;3.712;2023-05-29T19:31:05;20.83;;;4.20;;
48574;SDS011;34352;51.084;3.712;2023-05-29T19:33:35;20.85;;;4.30;;
48574;SDS011;34352;51.084;3.712;2023-05-29T19:38:31;19.20;;;4.50;;
48574;SDS011;34352;51.084;3.712;2023-05-29T19:40:59;15.85;;;4.15;;
48574;SDS011;34352;51.084;3.712;2023-05-29T19:43:25;18.52;;;4.05;;
48574;SDS011;34352;51.084;3.712;2023-05-29T19:45:52;16.88;;;3.80;;
48574;SDS011;34352;51.084;3.712;2023-05-29T19:48:19;17.30;;;4.13;;
48574;SDS011;34352;51.084;3.712;2023-05-29T19:50:45;16.60;;;4.20;;
48574;SDS011;34352;51.084;3.712;2023-05-29T19:53:11;20.25;;;4.85;;
48574;SDS011;34352;51.084;3.712;2023-05-29T19:55:41;23.52;;;4.57;;
48574;SDS011;34352;51.084;3.712;2023-05-29T19:58:07;21.83;;;4.53;;
48574;SDS011;34352;51.084;3.712;2023-05-29T20:03:06;21.63;;;4.85;;
48574;SDS011;34352;51.084;3.712;2023-05-29T20:05:33;20.15;;;4.93;;
48574;SDS011;34352;51.084;3.712;2023-05-29T20:08:01;19.40;;;4.68;;
48574;SDS011;34352;51.084;3.712;2023-05-29T20:10:27;14.07;;;3.80;;
48574;SDS011;34352;51.084;3.712;2023-05-29T20:12:53;15.10;;;4.18;;
48574;SDS011;34352;51.084;3.712;2023-05-29T20:15:22;18.02;;;4.63;;
48574;SDS011;34352;51.084;3.712;2023-05-29T20:17:47;27.45;;;4.90;;
48574;SDS011;34352;51.084;3.712;2023-05-29T20:22:42;16.88;;;4.15;;
48574;SDS011;34352;51.084;3.712;2023-05-29T20:25:09;17.95;;;4.28;;
48574;SDS011;34352;51.084;3.712;2023-05-29T20:27:35;14.05;;;4.28;;
48574;SDS011;34352;51.084;3.712;2023-05-29T20:30:02;25.00;;;4.80;;
48574;SDS011;34352;51.084;3.712;2023-05-29T20:32:38;16.92;;;4.95;;
48574;SDS011;34352;51.084;3.712;2023-05-29T20:35:05;17.90;;;4.72;;
48574;SDS011;34352;51.084;3.712;2023-05-29T20:37:32;15.13;;;4.65;;
48574;SDS011;34352;51.084;3.712;2023-05-29T20:39:58;19.38;;;6.90;;
48574;SDS011;34352;51.084;3.712;2023-05-29T20:44:55;25.83;;;8.77;;
48574;SDS011;34352;51.084;3.712;2023-05-29T20:47:20;20.50;;;8.30;;
48574;SDS011;34352;51.084;3.712;2023-05-29T20:49:47;25.60;;;8.10;;
48574;SDS011;34352;51.084;3.712;2023-05-29T20:52:13;25.75;;;10.07;;
48574;SDS011;34352;51.084;3.712;2023-05-29T20:54:40;26.48;;;9.93;;
48574;SDS011;34352;51.084;3.712;2023-05-29T20:57:07;23.48;;;8.57;;
48574;SDS011;34352;51.084;3.712;2023-05-29T20:59:43;19.42;;;7.78;;
48574;SDS011;34352;51.084;3.712;2023-05-29T21:02:10;22.70;;;7.53;;
48574;SDS011;34352;51.084;3.712;2023-05-29T21:04:36;17.10;;;7.85;;
48574;SDS011;34352;51.084;3.712;2023-05-29T21:07:02;18.90;;;7.95;;
48574;SDS011;34352;51.084;3.712;2023-05-29T21:09:29;23.20;;;7.55;;
48574;SDS011;34352;51.084;3.712;2023-05-29T21:11:56;20.92;;;9.30;;
48574;SDS011;34352;51.084;3.712;2023-05-29T21:14:22;26.08;;;9.63;;
48574;SDS011;34352;51.084;3.712;2023-05-29T21:16:51;29.52;;;8.57;;
48574;SDS011;34352;51.084;3.712;2023-05-29T21:19:18;22.83;;;8.90;;
48574;SDS011;34352;51.084;3.712;2023-05-29T21:21:46;25.92;;;9.82;;
48574;SDS011;34352;51.084;3.712;2023-05-29T21:24:14;18.95;;;7.35;;
48574;SDS011;34352;51.084;3.712;2023-05-29T21:26:42;22.45;;;8.32;;
48574;SDS011;34352;51.084;3.712;2023-05-29T21:29:08;19.48;;;7.55;;
48574;SDS011;34352;51.084;3.712;2023-05-29T21:31:38;19.08;;;6.40;;
48574;SDS011;34352;51.084;3.712;2023-05-29T21:34:06;15.52;;;4.65;;
48574;SDS011;34352;51.084;3.712;2023-05-29T21:36:34;15.93;;;4.78;;
48574;SDS011;34352;51.084;3.712;2023-05-29T21:39:02;12.05;;;4.90;;
48574;SDS011;34352;51.084;3.712;2023-05-29T21:41:28;12.52;;;3.95;;
48574;SDS011;34352;51.084;3.712;2023-05-29T21:43:54;15.02;;;6.35;;
48574;SDS011;34352;51.084;3.712;2023-05-29T21:46:20;20.40;;;7.72;;
48574;SDS011;34352;51.084;3.712;2023-05-29T21:48:48;13.20;;;3.90;;
48574;SDS011;34352;51.084;3.712;2023-05-29T21:51:13;14.80;;;4.10;;
48574;SDS011;34352;51.084;3.712;2023-05-29T21:53:39;16.60;;;5.28;;
48574;SDS011;34352;51.084;3.712;2023-05-29T21:56:05;15.95;;;5.38;;
48574;SDS011;34352;51.084;3.712;2023-05-29T21:58:31;16.33;;;6.05;;
48574;SDS011;34352;51.084;3.712;2023-05-29T22:00:57;16.52;;;6.72;;
48574;SDS011;34352;51.084;3.712;2023-05-29T22:03:25;18.15;;;7.43;;
48574;SDS011;34352;51.084;3.712;2023-05-29T22:05:53;18.80;;;7.03;;
48574;SDS011;34352;51.084;3.712;2023-05-29T22:08:21;21.80;;;7.20;;
48574;SDS011;34352;51.084;3.712;2023-05-29T22:10:47;21.95;;;8.32;;
48574;SDS011;34352;51.084;3.712;2023-05-29T22:13:12;17.67;;;7.22;;
48574;SDS011;34352;51.084;3.712;2023-05-29T22:15:40;17.50;;;7.20;;
48574;SDS011;34352;51.084;3.712;2023-05-29T22:18:06;23.70;;;8.10;;
48574;SDS011;34352;51.084;3.712;2023-05-29T22:20:34;23.40;;;8.43;;
48574;SDS011;34352;51.084;3.712;2023-05-29T22:23:00;21.58;;;8.32;;
48574;SDS011;34352;51.084;3.712;2023-05-29T22:25:29;20.60;;;7.00;;
48574;SDS011;34352;51.084;3.712;2023-05-29T22:27:57;22.27;;;6.90;;
48574;SDS011;34352;51.084;3.712;2023-05-29T22:30:23;19.20;;;5.75;;
48574;SDS011;34352;51.084;3.712;2023-05-29T22:35:19;20.15;;;6.25;;
48574;SDS011;34352;51.084;3.712;2023-05-29T22:37:46;20.27;;;5.85;;
48574;SDS011;34352;51.084;3.712;2023-05-29T22:42:43;15.18;;;5.40;;
48574;SDS011;34352;51.084;3.712;2023-05-29T22:45:09;16.65;;;5.22;;
48574;SDS011;34352;51.084;3.712;2023-05-29T22:47:37;16.23;;;5.50;;
48574;SDS011;34352;51.084;3.712;2023-05-29T22:50:03;21.65;;;5.85;;
48574;SDS011;34352;51.084;3.712;2023-05-29T22:52:29;16.13;;;5.50;;
48574;SDS011;34352;51.084;3.712;2023-05-29T22:54:58;13.85;;;5.28;;
48574;SDS011;34352;51.084;3.712;2023-05-29T22:57:24;24.08;;;5.65;;
48574;SDS011;34352;51.084;3.712;2023-05-29T22:59:51;18.52;;;5.80;;
48574;SDS011;34352;51.084;3.712;2023-05-29T23:02:16;22.05;;;5.20;;
48574;SDS011;34352;51.084;3.712;2023-05-29T23:04:42;17.63;;;7.00;;
48574;SDS011;34352;51.084;3.712;2023-05-29T23:07:09;27.55;;;6.10;;
48574;SDS011;34352;51.084;3.712;2023-05-29T23:09:37;19.88;;;6.93;;
48574;SDS011;34352;51.084;3.712;2023-05-29T23:12:05;23.65;;;7.95;;
48574;SDS011;34352;51.084;3.712;2023-05-29T23:14:36;25.17;;;9.05;;
48574;SDS011;34352;51.084;3.712;2023-05-29T23:17:01;23.90;;;8.27;;
48574;SDS011;34352;51.084;3.712;2023-05-29T23:19:28;21.63;;;7.65;;
48574;SDS011;34352;51.084;3.712;2023-05-29T23:21:54;21.17;;;6.85;;
48574;SDS011;34352;51.084;3.712;2023-05-29T23:24:23;23.52;;;8.27;;
48574;SDS011;34352;51.084;3.712;2023-05-29T23:26:53;28.90;;;7.68;;
48574;SDS011;34352;51.084;3.712;2023-05-29T23:29:21;24.45;;;8.00;;
48574;SDS011;34352;51.084;3.712;2023-05-29T23:31:47;19.48;;;6.82;;
48574;SDS011;34352;51.084;3.712;2023-05-29T23:34:15;25.58;;;8.10;;
48574;SDS011;34352;51.084;3.712;2023-05-29T23:36:45;24.88;;;8.55;;
48574;SDS011;34352;51.084;3.712;2023-05-29T23:39:15;16.95;;;7.05;;
48574;SDS011;34352;51.084;3.712;2023-05-29T23:41:41;28.40;;;7.38;;
48574;SDS011;34352;51.084;3.712;2023-05-29T23:44:10;19.45;;;7.32;;
48574;SDS011;34352;51.084;3.712;2023-05-29T23:46:36;22.17;;;6.85;;
48574;SDS011;34352;51.084;3.712;2023-05-29T23:49:04;24.77;;;7.22;;
48574;SDS011;34352;51.084;3.712;2023-05-29T23:51:36;23.88;;;7.90;;
48574;SDS011;34352;51.084;3.712;2023-05-29T23:54:04;25.38;;;7.07;;
48574;SDS011;34352;51.084;3.712;2023-05-29T23:56:34;27.67;;;7.93;;
48574;SDS011;34352;51.084;3.712;2023-05-29T23:59:00;21.75;;;7.13;;
